Tomino, Spain
Current Conditions -  °F | °C
As of 5:00 PM on Thursday 27 Nov 2014 (Local Time) from LEVX Reporting Station
Few Clouds Few Clouds  
Wind Chill: 54°   Ceiling: Unl
Heat Index: 54°   Visibility: 6mi
Dew Point: 45°   Wind: 15mph
Humidity: 72%   Direction: 200°SSW
Pressure: 29.18"   Gusts: NA
Location:  41.99°N, 8.76°W
Report Text: LEVX 271600Z 20013KT 150V230 9999 FEW035 12/07 Q0988 NOSIG
Loading
Personal Weather Stations






























Interactive Weather Map New forecast layout! Learn more

10-Day Weather Forecast

Advertisements
Track Severe Weather on mobile